createdAt,value
2022-12-17T00:01:20.977Z,2.79
2022-12-17T00:04:06.263Z,2.79
2022-12-17T00:07:08.524Z,2.79
2022-12-17T00:09:53.752Z,2.89
2022-12-17T00:12:41.533Z,2.96
2022-12-17T00:15:26.898Z,2.98
2022-12-17T00:18:12.205Z,3.04
2022-12-17T00:20:57.555Z,3.04
2022-12-17T00:23:42.890Z,2.95
2022-12-17T00:26:28.083Z,2.92
2022-12-17T00:29:17.830Z,2.87
2022-12-17T00:32:03.560Z,2.85
2022-12-17T00:34:48.764Z,2.89
2022-12-17T00:37:33.985Z,2.92
2022-12-17T00:40:19.211Z,2.85
2022-12-17T00:43:04.654Z,2.92
2022-12-17T00:45:50.054Z,2.96
2022-12-17T00:48:35.605Z,2.95
2022-12-17T00:51:21.226Z,2.89
2022-12-17T00:54:06.381Z,2.78
2022-12-17T00:56:51.807Z,2.78
2022-12-17T00:59:37.225Z,2.77
2022-12-17T01:02:22.450Z,2.83
2022-12-17T01:05:07.844Z,2.79
2022-12-17T01:07:52.996Z,2.85
2022-12-17T01:10:41.779Z,2.89
2022-12-17T01:13:26.948Z,2.80
2022-12-17T01:16:12.224Z,2.78
2022-12-17T01:18:57.429Z,2.83
2022-12-17T01:21:42.631Z,2.80
2022-12-17T01:24:28.242Z,2.86
2022-12-17T01:27:13.464Z,2.79
2022-12-17T01:29:58.694Z,2.78
2022-12-17T01:32:44.084Z,2.75
2022-12-17T01:35:29.279Z,2.77
2022-12-17T01:38:16.678Z,2.67
2022-12-17T01:41:02.097Z,2.71
2022-12-17T01:43:53.546Z,2.66
2022-12-17T01:46:40.267Z,2.75
2022-12-17T01:49:28.081Z,2.74
2022-12-17T01:52:13.913Z,2.71
2022-12-17T01:54:59.511Z,2.69
2022-12-17T01:57:45.840Z,2.72
2022-12-17T02:00:33.685Z,2.72
2022-12-17T02:03:19.449Z,2.78
2022-12-17T02:06:42.783Z,2.82
2022-12-17T02:09:35.078Z,2.91
2022-12-17T02:12:31.751Z,2.90
2022-12-17T02:15:21.408Z,2.87
2022-12-17T02:18:18.000Z,2.73
2022-12-17T02:21:10.343Z,2.79
2022-12-17T02:24:10.994Z,2.81
2022-12-17T02:27:00.699Z,2.78
2022-12-17T02:29:53.168Z,2.76
2022-12-17T02:32:43.468Z,2.80
2022-12-17T02:35:34.015Z,2.79
2022-12-17T02:38:19.319Z,2.80
2022-12-17T02:41:07.131Z,2.86
2022-12-17T02:43:53.640Z,2.79
2022-12-17T02:46:40.190Z,2.78
2022-12-17T02:49:25.363Z,2.76
2022-12-17T02:52:13.013Z,2.78
2022-12-17T02:54:58.593Z,2.74
2022-12-17T02:57:45.771Z,2.69
2022-12-17T03:00:33.033Z,2.69
2022-12-17T03:03:18.523Z,2.65
2022-12-17T03:06:03.706Z,2.67
2022-12-17T03:08:48.972Z,2.61
2022-12-17T03:11:35.612Z,2.67
2022-12-17T03:14:20.895Z,2.66
2022-12-17T03:17:05.869Z,2.57
2022-12-17T03:19:51.206Z,2.48
2022-12-17T03:22:36.474Z,2.44
2022-12-17T03:25:21.810Z,2.54
2022-12-17T03:28:06.971Z,2.59
2022-12-17T03:30:56.745Z,2.48
2022-12-17T03:33:42.142Z,2.35
2022-12-17T03:36:27.519Z,2.38
2022-12-17T03:39:12.693Z,2.42
2022-12-17T03:41:57.997Z,2.50
2022-12-17T03:44:43.167Z,2.56
2022-12-17T03:47:28.391Z,2.55
2022-12-17T03:50:13.440Z,2.53
2022-12-17T03:52:58.707Z,2.48
2022-12-17T03:55:44.061Z,2.51
2022-12-17T03:58:29.212Z,2.51
2022-12-17T04:01:14.590Z,2.32
2022-12-17T04:03:59.782Z,2.32
2022-12-17T04:06:44.962Z,2.35
2022-12-17T04:09:30.230Z,2.29
2022-12-17T04:12:15.436Z,2.16
2022-12-17T04:15:00.858Z,2.06
2022-12-17T04:17:45.954Z,2.07
2022-12-17T04:20:31.260Z,2.03
2022-12-17T04:23:16.480Z,2.05
2022-12-17T04:26:01.749Z,2.04
2022-12-17T04:28:46.875Z,2.04
2022-12-17T04:31:32.739Z,2.04
2022-12-17T04:34:17.879Z,2.06
2022-12-17T04:37:03.274Z,2.08
2022-12-17T04:39:48.455Z,2.19
2022-12-17T04:42:33.846Z,2.17
2022-12-17T04:45:18.994Z,2.05
2022-12-17T04:48:04.323Z,2.03
2022-12-17T04:50:49.227Z,2.05
2022-12-17T04:53:34.831Z,1.98
2022-12-17T04:56:20.618Z,2.00
2022-12-17T04:59:06.338Z,1.74
2022-12-17T05:01:51.718Z,1.82
2022-12-17T05:04:36.692Z,1.61
2022-12-17T05:07:21.840Z,1.64
2022-12-17T05:10:06.988Z,1.66
2022-12-17T05:12:51.867Z,1.66
2022-12-17T05:15:37.260Z,1.56
2022-12-17T05:18:27.138Z,1.44
2022-12-17T05:21:12.837Z,1.38
2022-12-17T05:23:58.145Z,1.36
2022-12-17T05:26:45.839Z,1.34
2022-12-17T05:29:31.484Z,1.31
2022-12-17T05:32:17.357Z,1.38
2022-12-17T05:35:02.455Z,1.34
2022-12-17T05:37:47.763Z,1.43
2022-12-17T05:40:32.967Z,1.43
2022-12-17T05:43:21.131Z,1.35
2022-12-17T05:46:06.453Z,1.41
2022-12-17T05:48:53.052Z,1.41
2022-12-17T05:51:39.875Z,1.37
2022-12-17T05:54:25.805Z,1.36
2022-12-17T05:57:11.725Z,1.34
2022-12-17T05:59:57.053Z,1.17
2022-12-17T06:02:42.303Z,1.14
2022-12-17T06:05:27.561Z,1.11
2022-12-17T06:08:12.565Z,1.27
2022-12-17T06:10:57.830Z,1.36
2022-12-17T06:13:42.945Z,1.41
2022-12-17T06:16:28.372Z,1.44
2022-12-17T06:19:13.695Z,1.43
2022-12-17T06:21:58.932Z,1.46
2022-12-17T06:24:46.055Z,1.42
2022-12-17T06:27:31.889Z,1.20
2022-12-17T06:30:18.787Z,1.31
2022-12-17T06:33:04.838Z,1.32
2022-12-17T06:35:50.579Z,1.37
2022-12-17T06:38:36.155Z,1.11
2022-12-17T06:41:21.489Z,1.00
2022-12-17T06:44:06.709Z,0.83
2022-12-17T06:46:52.027Z,0.97
2022-12-17T06:49:37.191Z,1.04
2022-12-17T06:52:22.336Z,1.15
2022-12-17T06:55:07.775Z,1.00
2022-12-17T06:57:53.013Z,1.04
2022-12-17T07:00:38.378Z,1.03
2022-12-17T07:03:23.821Z,1.09
2022-12-17T07:06:09.083Z,0.90
2022-12-17T07:08:54.255Z,1.05
2022-12-17T07:11:39.455Z,1.15
2022-12-17T07:14:24.630Z,1.19
2022-12-17T07:17:09.744Z,1.27
2022-12-17T07:19:54.892Z,1.24
2022-12-17T07:22:40.222Z,1.16
2022-12-17T07:25:25.927Z,1.27
2022-12-17T07:28:12.798Z,1.22
2022-12-17T07:30:57.825Z,1.20
2022-12-17T07:33:42.966Z,1.10
2022-12-17T07:36:28.470Z,1.18
2022-12-17T07:39:13.774Z,1.24
2022-12-17T07:41:59.146Z,1.23
2022-12-17T07:44:45.372Z,1.28
2022-12-17T07:47:30.463Z,1.29
2022-12-17T07:50:15.554Z,1.22
2022-12-17T07:53:00.758Z,1.19
2022-12-17T07:56:05.949Z,1.14
2022-12-17T07:58:51.407Z,1.20
2022-12-17T08:01:36.548Z,1.25
2022-12-17T08:04:22.214Z,1.26
2022-12-17T08:07:13.248Z,1.19
2022-12-17T08:09:59.152Z,1.33
2022-12-17T08:12:44.448Z,1.36
2022-12-17T08:15:29.503Z,1.37
2022-12-17T08:18:26.419Z,1.32
2022-12-17T08:21:12.807Z,1.33
2022-12-17T08:23:58.253Z,1.45
2022-12-17T08:26:47.876Z,1.42
2022-12-17T08:29:33.876Z,1.51
2022-12-17T08:32:18.971Z,1.49
2022-12-17T08:35:04.430Z,1.60
2022-12-17T08:37:49.671Z,1.68
2022-12-17T08:40:34.969Z,1.71
2022-12-17T08:43:20.028Z,1.83
2022-12-17T08:46:07.236Z,1.99
2022-12-17T08:49:00.110Z,2.18
2022-12-17T08:51:45.716Z,2.26
2022-12-17T08:54:30.911Z,2.29
2022-12-17T08:57:30.861Z,2.44
2022-12-17T09:00:17.037Z,2.51
2022-12-17T09:03:02.371Z,2.67
2022-12-17T09:05:47.913Z,2.68
2022-12-17T09:08:33.035Z,2.81
2022-12-17T09:11:18.707Z,2.79
2022-12-17T09:14:03.856Z,2.91
2022-12-17T09:16:49.049Z,3.07
2022-12-17T09:19:34.253Z,3.12
2022-12-17T09:22:19.456Z,3.18
2022-12-17T09:25:04.709Z,3.28
2022-12-17T09:28:03.607Z,3.35
2022-12-17T09:30:48.765Z,3.49
2022-12-17T09:33:37.846Z,3.63
2022-12-17T09:36:23.922Z,3.73
2022-12-17T09:39:09.251Z,3.78
2022-12-17T09:42:37.915Z,3.85
2022-12-17T09:45:40.540Z,3.96
2022-12-17T09:48:44.523Z,3.97
2022-12-17T09:51:41.690Z,4.08
2022-12-17T09:54:59.282Z,4.15
2022-12-17T09:57:52.713Z,4.29
2022-12-17T10:00:44.660Z,4.46
2022-12-17T10:03:33.919Z,4.50
2022-12-17T10:06:31.706Z,4.67
2022-12-17T10:09:25.548Z,4.79
2022-12-17T10:12:10.800Z,4.83
2022-12-17T10:14:55.879Z,4.92
2022-12-17T10:17:42.619Z,5.02
2022-12-17T10:20:42.050Z,4.97
2022-12-17T10:23:27.529Z,4.96
2022-12-17T10:26:14.728Z,5.08
2022-12-17T10:28:59.999Z,5.11
2022-12-17T10:31:48.923Z,5.11
2022-12-17T10:34:37.792Z,4.97
2022-12-17T10:37:24.946Z,5.04
2022-12-17T10:40:18.964Z,5.25
2022-12-17T10:43:04.618Z,5.32
2022-12-17T10:45:53.470Z,5.44
2022-12-17T10:48:56.826Z,5.43
2022-12-17T10:51:53.869Z,5.56
2022-12-17T10:54:49.338Z,5.73
2022-12-17T10:57:56.396Z,5.74
2022-12-17T11:00:50.877Z,5.86
2022-12-17T11:03:54.294Z,6.07
2022-12-17T11:06:48.079Z,6.07
2022-12-17T11:09:42.296Z,6.10
2022-12-17T11:12:31.160Z,6.14
2022-12-17T11:15:26.304Z,6.17
2022-12-17T11:18:12.093Z,6.20
2022-12-17T11:21:09.274Z,6.22
2022-12-17T11:24:00.076Z,6.23
2022-12-17T11:26:48.962Z,6.34
2022-12-17T11:29:34.166Z,6.45
2022-12-17T11:32:45.799Z,6.54
2022-12-17T11:36:06.736Z,6.58
2022-12-17T11:39:05.445Z,6.59
2022-12-17T11:42:10.861Z,6.77
2022-12-17T11:45:16.655Z,6.71
2022-12-17T11:48:12.962Z,6.85
2022-12-17T11:51:01.390Z,6.91
2022-12-17T11:54:06.304Z,6.90
2022-12-17T11:56:59.721Z,6.90
2022-12-17T12:00:04.324Z,6.92
2022-12-17T12:03:41.001Z,7.02
2022-12-17T12:06:41.812Z,7.07
2022-12-17T12:09:40.820Z,7.17
2022-12-17T12:12:41.234Z,7.19
2022-12-17T12:15:51.142Z,7.32
2022-12-17T12:18:56.279Z,7.31
2022-12-17T12:21:53.750Z,7.44
2022-12-17T12:24:57.571Z,7.43
2022-12-17T12:28:32.593Z,7.42
2022-12-17T12:31:25.388Z,7.46
2022-12-17T12:34:32.612Z,7.35
2022-12-17T12:37:23.846Z,7.41
2022-12-17T12:40:15.285Z,7.52
2022-12-17T12:43:24.530Z,7.56
2022-12-17T12:46:16.804Z,7.58
2022-12-17T12:49:34.714Z,7.66
2022-12-17T12:52:20.530Z,7.74
2022-12-17T12:55:05.608Z,7.84
2022-12-17T12:58:01.040Z,7.84
2022-12-17T13:00:52.862Z,7.97
2022-12-17T13:03:44.771Z,7.96
2022-12-17T13:06:14.850Z,7.95
2022-12-17T13:08:42.138Z,7.99
2022-12-17T13:11:30.847Z,7.98
2022-12-17T13:14:05.374Z,7.99
2022-12-17T13:16:38.185Z,7.95
2022-12-17T13:19:19.314Z,7.93
2022-12-17T13:21:46.106Z,8.02
2022-12-17T13:24:23.798Z,8.00
2022-12-17T13:26:50.794Z,8.10
2022-12-17T13:29:34.272Z,8.15
2022-12-17T13:32:01.105Z,8.14
2022-12-17T13:35:10.048Z,8.13
2022-12-17T13:38:02.207Z,8.23
2022-12-17T13:40:46.718Z,8.16
2022-12-17T13:43:22.317Z,8.13
2022-12-17T13:45:51.384Z,7.99
2022-12-17T13:48:26.251Z,8.08
2022-12-17T13:51:05.128Z,8.05
2022-12-17T13:53:35.762Z,8.05
2022-12-17T13:56:03.092Z,7.98
2022-12-17T13:58:33.726Z,8.04
2022-12-17T14:01:11.940Z,8.07
2022-12-17T14:06:38.699Z,8.15
2022-12-17T14:09:05.985Z,8.18
2022-12-17T14:11:52.272Z,8.22
2022-12-17T14:14:39.303Z,8.20
2022-12-17T14:17:20.979Z,8.18
2022-12-17T14:19:58.243Z,8.06
2022-12-17T14:22:40.157Z,7.97
2022-12-17T14:25:18.468Z,8.00
2022-12-17T14:27:55.668Z,7.93
2022-12-17T14:30:25.575Z,7.94
2022-12-17T14:32:52.446Z,7.93
2022-12-17T14:35:28.266Z,7.93
2022-12-17T14:37:55.301Z,7.85
2022-12-17T14:40:25.457Z,7.48
2022-12-17T14:42:59.195Z,7.29
2022-12-17T14:45:27.481Z,7.27
2022-12-17T14:48:04.435Z,7.20
2022-12-17T14:50:34.818Z,7.01
2022-12-17T14:53:25.635Z,7.06
2022-12-17T14:55:56.191Z,6.95
2022-12-17T14:58:26.174Z,6.79
2022-12-17T15:00:59.917Z,6.68
2022-12-17T15:03:29.133Z,6.55
2022-12-17T15:06:02.320Z,6.42
2022-12-17T15:08:35.666Z,6.09
2022-12-17T15:11:03.402Z,6.05
2022-12-17T15:13:30.263Z,5.88
2022-12-17T15:15:57.679Z,5.76
2022-12-17T15:18:24.820Z,5.75
2022-12-17T15:20:52.112Z,5.67
2022-12-17T15:23:23.747Z,5.52
2022-12-17T15:25:57.841Z,5.51
2022-12-17T15:28:26.161Z,5.43
2022-12-17T15:30:56.010Z,5.34
2022-12-17T15:33:22.858Z,5.17
2022-12-17T15:35:49.915Z,5.11
2022-12-17T15:38:17.053Z,5.04
2022-12-17T15:40:43.834Z,4.89
2022-12-17T15:43:12.225Z,4.83
2022-12-17T15:45:40.006Z,4.79
2022-12-17T15:48:09.599Z,4.81
2022-12-17T15:50:36.570Z,4.77
2022-12-17T15:53:03.947Z,4.61
2022-12-17T15:55:31.243Z,4.65
2022-12-17T15:57:58.416Z,4.64
2022-12-17T16:00:25.277Z,4.51
2022-12-17T16:02:52.308Z,4.58
2022-12-17T16:05:21.062Z,4.43
2022-12-17T16:07:49.233Z,4.37
2022-12-17T16:10:16.251Z,4.39
2022-12-17T16:12:43.454Z,4.31
2022-12-17T16:15:11.340Z,4.42
2022-12-17T16:17:38.164Z,4.41
2022-12-17T16:20:06.227Z,4.32
2022-12-17T16:22:33.744Z,4.17
2022-12-17T16:25:00.536Z,4.23
2022-12-17T16:27:27.325Z,4.23
2022-12-17T16:29:53.855Z,4.23
2022-12-17T16:32:20.469Z,4.18
2022-12-17T16:34:47.148Z,4.26
2022-12-17T16:37:14.191Z,4.11
2022-12-17T16:39:40.848Z,4.27
2022-12-17T16:42:07.955Z,4.19
2022-12-17T16:44:34.803Z,4.21
2022-12-17T16:47:01.632Z,4.16
2022-12-17T16:49:28.809Z,4.01
2022-12-17T16:51:57.762Z,4.04
2022-12-17T16:54:27.381Z,4.05
2022-12-17T16:56:54.980Z,4.10
2022-12-17T16:59:23.397Z,3.99
2022-12-17T17:01:52.125Z,3.94
2022-12-17T17:04:21.871Z,4.02
2022-12-17T17:06:56.179Z,3.92
2022-12-17T17:09:24.034Z,4.02
2022-12-17T17:11:51.964Z,3.92
2022-12-17T17:14:19.824Z,3.96
2022-12-17T17:16:46.563Z,3.91
2022-12-17T17:19:13.391Z,3.83
2022-12-17T17:21:49.894Z,3.80
2022-12-17T17:24:21.115Z,3.81
2022-12-17T17:26:49.306Z,3.79
2022-12-17T17:29:16.353Z,3.72
2022-12-17T17:34:29.952Z,3.86
2022-12-17T17:36:56.651Z,3.80
2022-12-17T17:39:23.393Z,3.77
2022-12-17T17:41:50.149Z,3.77
2022-12-17T17:44:16.822Z,3.82
2022-12-17T17:46:43.650Z,3.80
2022-12-17T17:49:10.678Z,3.62
2022-12-17T17:54:28.654Z,3.64
2022-12-17T17:56:55.535Z,3.56
2022-12-17T17:59:30.990Z,3.62
2022-12-17T18:02:00.260Z,3.60
2022-12-17T18:04:27.151Z,3.56
2022-12-17T18:07:23.718Z,3.65
2022-12-17T18:09:40.720Z,3.61
2022-12-17T18:12:26.046Z,3.58
2022-12-17T18:15:13.068Z,3.53
2022-12-17T18:17:39.885Z,3.46
2022-12-17T18:20:07.253Z,3.50
2022-12-17T18:22:33.974Z,3.51
2022-12-17T18:25:00.760Z,3.47
2022-12-17T18:27:27.731Z,3.42
2022-12-17T18:29:54.385Z,3.32
2022-12-17T18:32:21.108Z,3.33
2022-12-17T18:34:47.883Z,3.33
2022-12-17T18:37:14.658Z,3.41
2022-12-17T18:39:41.324Z,3.34
2022-12-17T18:42:27.068Z,3.34
2022-12-17T18:44:53.653Z,3.39
2022-12-17T18:47:21.440Z,3.24
2022-12-17T18:49:48.412Z,3.06
2022-12-17T18:52:17.366Z,3.17
2022-12-17T18:54:45.375Z,3.28
2022-12-17T18:57:13.236Z,3.21
2022-12-17T18:59:41.117Z,3.26
2022-12-17T19:02:14.759Z,3.24
2022-12-17T19:04:41.780Z,3.11
2022-12-17T19:07:08.772Z,3.12
2022-12-17T19:09:36.296Z,3.06
2022-12-17T19:12:07.875Z,3.10
2022-12-17T19:14:35.236Z,3.15
2022-12-17T19:17:02.593Z,3.22
2022-12-17T19:19:29.728Z,3.26
2022-12-17T19:21:56.524Z,3.16
2022-12-17T19:24:23.600Z,3.17
2022-12-17T19:26:50.803Z,3.04
2022-12-17T19:29:20.391Z,2.98
2022-12-17T19:31:47.685Z,2.98
2022-12-17T19:34:16.121Z,3.05
2022-12-17T19:36:42.999Z,3.07
2022-12-17T19:39:13.793Z,3.23
2022-12-17T19:41:40.839Z,3.19
2022-12-17T19:44:11.011Z,3.14
2022-12-17T19:46:37.908Z,3.22
2022-12-17T19:49:05.277Z,3.15
2022-12-17T19:51:32.751Z,3.16
2022-12-17T19:54:06.417Z,3.23
2022-12-17T19:56:35.200Z,3.14
2022-12-17T19:59:06.741Z,3.17
2022-12-17T20:01:41.456Z,3.15
2022-12-17T20:04:11.106Z,3.25
2022-12-17T20:06:38.109Z,3.27
2022-12-17T20:09:06.209Z,3.20
2022-12-17T20:11:33.451Z,3.22
2022-12-17T20:14:22.016Z,3.24
2022-12-17T20:16:51.546Z,3.22
2022-12-17T20:19:21.991Z,3.24
2022-12-17T20:21:49.638Z,3.31
2022-12-17T20:24:17.367Z,3.27
2022-12-17T20:26:45.055Z,3.27
2022-12-17T20:29:12.406Z,3.31
2022-12-17T20:31:39.236Z,3.29
2022-12-17T20:34:08.289Z,3.26
2022-12-17T20:36:36.138Z,3.28
2022-12-17T20:39:03.534Z,3.30
2022-12-17T20:41:31.596Z,3.34
2022-12-17T20:43:58.704Z,3.34
2022-12-17T20:46:25.677Z,3.37
2022-12-17T20:48:52.788Z,3.39
2022-12-17T20:51:28.478Z,3.31
2022-12-17T20:53:56.786Z,3.23
2022-12-17T20:56:26.641Z,3.16
2022-12-17T20:58:55.597Z,3.16
2022-12-17T21:01:24.453Z,3.24
2022-12-17T21:03:53.081Z,3.15
2022-12-17T21:06:21.350Z,3.13
2022-12-17T21:08:50.351Z,3.14
2022-12-17T21:11:19.306Z,3.03
2022-12-17T21:13:46.143Z,3.10
2022-12-17T21:16:15.692Z,3.24
2022-12-17T21:18:42.932Z,3.24
2022-12-17T21:21:12.521Z,3.33
2022-12-17T21:23:39.975Z,3.30
2022-12-17T21:26:08.866Z,3.19
2022-12-17T21:28:38.471Z,3.25
2022-12-17T21:31:05.888Z,3.31
2022-12-17T21:33:33.413Z,3.17
2022-12-17T21:36:02.156Z,3.16
2022-12-17T21:38:34.818Z,3.23
2022-12-17T21:41:09.996Z,3.18
2022-12-17T21:43:37.795Z,3.26
2022-12-17T21:46:05.599Z,3.30
2022-12-17T21:48:38.037Z,3.33
2022-12-17T21:51:08.624Z,3.26
2022-12-17T21:53:35.661Z,3.26
2022-12-17T21:56:05.058Z,3.27
2022-12-17T21:58:32.399Z,3.21
2022-12-17T22:01:09.024Z,3.25
2022-12-17T22:03:47.218Z,3.28
2022-12-17T22:06:20.603Z,3.33
2022-12-17T22:08:48.626Z,3.23
2022-12-17T22:11:19.578Z,3.17
2022-12-17T22:14:08.881Z,3.25
2022-12-17T22:16:47.017Z,3.27
2022-12-17T22:19:18.968Z,3.33
2022-12-17T22:21:48.032Z,3.28
2022-12-17T22:24:18.076Z,3.39
2022-12-17T22:26:45.413Z,3.38
2022-12-17T22:29:12.718Z,3.30
2022-12-17T22:31:57.885Z,3.38
2022-12-17T22:35:54.648Z,3.44
2022-12-17T22:41:16.931Z,3.26
2022-12-17T22:44:30.055Z,3.32
2022-12-17T22:44:49.751Z,3.31
2022-12-17T22:45:50.554Z,3.18
2022-12-17T22:48:17.344Z,3.21
2022-12-17T22:50:46.488Z,3.18
2022-12-17T22:53:29.025Z,3.20
2022-12-17T22:56:15.805Z,3.19
2022-12-17T22:58:50.236Z,3.18
2022-12-17T23:01:22.645Z,3.19
2022-12-17T23:03:49.762Z,3.22
2022-12-17T23:06:18.092Z,3.29
2022-12-17T23:08:45.418Z,3.25
2022-12-17T23:11:18.396Z,3.17
2022-12-17T23:13:45.606Z,3.28
2022-12-17T23:16:13.528Z,3.41
2022-12-17T23:18:41.484Z,3.39
2022-12-17T23:21:24.439Z,3.49
2022-12-17T23:23:53.226Z,3.54
2022-12-17T23:26:25.716Z,3.43
2022-12-17T23:28:58.284Z,3.33
2022-12-17T23:31:27.344Z,3.31
2022-12-17T23:33:54.023Z,3.26
2022-12-17T23:36:23.707Z,3.36
2022-12-17T23:38:51.759Z,3.33
2022-12-17T23:41:21.205Z,3.38
2022-12-17T23:43:49.051Z,3.42
2022-12-17T23:46:17.067Z,3.42
2022-12-17T23:48:45.851Z,3.41
2022-12-17T23:51:14.875Z,3.39
2022-12-17T23:53:42.665Z,3.39
2022-12-17T23:56:15.857Z,3.44
2022-12-17T23:58:44.164Z,3.44
